Time;durP1;ratioP1;P1;durP2;ratioP2;P2;SDS_P1;SDS_P2;PMS_P1;PMS_P2;Temp;Humidity;BMP_temperature;BMP_pressure;BME280_temperature;BME280_humidity;BME280_pressure;Samples;Min_cycle;Max_cycle;Signal;HPM_P1;HPM_P2
2024/02/05 00:00:04;;;;;;;16.73;6.55;;;10.80;99.90;;;;;;5084996;28;20205;-75
2024/02/05 00:02:30;;;;;;;14.15;6.00;;;10.90;99.90;;;;;;5074846;28;20576;-74
2024/02/05 00:04:59;;;;;;;13.45;6.65;;;10.90;99.90;;;;;;5073631;28;20202;-73
2024/02/05 00:07:26;;;;;;;18.65;8.13;;;10.90;99.90;;;;;;5077253;28;20206;-73
2024/02/05 00:09:53;;;;;;;16.90;7.40;;;10.90;99.90;;;;;;5077531;28;20211;-74
2024/02/05 00:12:20;;;;;;;11.65;6.32;;;10.90;99.90;;;;;;5079181;28;20325;-73
2024/02/05 00:14:47;;;;;;;11.07;6.78;;;10.80;99.90;;;;;;5072741;28;20211;-74
2024/02/05 00:17:14;;;;;;;14.60;5.85;;;10.90;99.90;;;;;;5080988;28;20265;-74
2024/02/05 00:19:41;;;;;;;15.98;5.82;;;10.90;99.90;;;;;;5073121;28;20609;-73
2024/02/05 00:22:09;;;;;;;14.82;6.05;;;10.90;99.90;;;;;;5077377;28;20215;-73
2024/02/05 00:24:36;;;;;;;19.17;5.78;;;10.90;99.90;;;;;;5084932;28;20626;-74
2024/02/05 00:27:03;;;;;;;11.25;5.10;;;10.90;99.90;;;;;;5075220;28;20235;-71
2024/02/05 00:29:30;;;;;;;8.45;4.97;;;11.00;99.90;;;;;;5076277;28;20230;-73
2024/02/05 00:31:57;;;;;;;16.48;6.88;;;10.90;99.90;;;;;;5077914;28;20275;-73
2024/02/05 00:34:25;;;;;;;13.13;5.57;;;10.90;99.90;;;;;;5072807;28;20203;-70
2024/02/05 00:36:52;;;;;;;10.23;5.82;;;10.90;99.90;;;;;;5073783;28;20208;-73
2024/02/05 00:39:20;;;;;;;23.02;7.00;;;10.90;99.90;;;;;;5077863;28;20199;-74
2024/02/05 00:41:47;;;;;;;20.40;6.13;;;10.90;99.90;;;;;;5073429;28;20213;-71
2024/02/05 00:44:14;;;;;;;19.55;6.70;;;10.90;99.90;;;;;;5076157;28;20279;-75
2024/02/05 00:46:41;;;;;;;20.17;6.22;;;10.90;99.90;;;;;;5072695;28;20203;-71
2024/02/05 00:49:08;;;;;;;17.55;5.95;;;10.90;99.90;;;;;;5074242;28;20261;-73
2024/02/05 00:51:35;;;;;;;19.70;7.63;;;10.90;99.90;;;;;;5077894;28;20723;-70
2024/02/05 00:54:03;;;;;;;10.00;4.90;;;10.90;99.90;;;;;;5077526;28;20285;-71
2024/02/05 00:56:33;;;;;;;16.90;5.78;;;10.90;99.90;;;;;;5083358;28;20202;-73
2024/02/05 00:59:00;;;;;;;14.27;5.95;;;10.90;99.90;;;;;;5083065;28;20273;-73
2024/02/05 01:01:28;;;;;;;23.70;7.60;;;10.90;99.90;;;;;;5077119;28;20685;-74
2024/02/05 01:03:54;;;;;;;19.05;6.93;;;10.90;99.90;;;;;;5087583;28;20258;-74
2024/02/05 01:06:21;;;;;;;13.25;6.82;;;10.80;99.90;;;;;;5076824;28;20332;-71
2024/02/05 01:08:48;;;;;;;17.77;7.30;;;10.80;99.90;;;;;;5076127;28;20659;-72
2024/02/05 01:11:17;;;;;;;14.25;7.15;;;10.80;99.90;;;;;;5084511;28;20211;-73
2024/02/05 01:13:45;;;;;;;23.13;8.02;;;10.80;99.90;;;;;;5088880;28;20280;-74
2024/02/05 01:16:12;;;;;;;11.43;6.15;;;10.80;99.90;;;;;;5077214;28;20253;-75
2024/02/05 01:18:40;;;;;;;16.98;6.50;;;10.80;99.90;;;;;;5080704;28;20207;-74
2024/02/05 01:21:07;;;;;;;12.77;5.97;;;10.80;99.90;;;;;;5075683;28;20761;-72
2024/02/05 01:23:34;;;;;;;17.20;5.47;;;10.80;99.90;;;;;;5080752;28;20219;-73
2024/02/05 01:26:01;;;;;;;10.93;6.68;;;10.80;99.90;;;;;;5087944;28;20545;-72
2024/02/05 01:28:28;;;;;;;14.73;5.35;;;10.80;99.90;;;;;;5082405;28;20609;-74
2024/02/05 01:30:57;;;;;;;11.45;5.50;;;10.80;99.90;;;;;;5075512;28;20731;-72
2024/02/05 01:33:24;;;;;;;17.88;5.70;;;10.80;99.90;;;;;;5076815;28;20281;-73
2024/02/05 01:35:51;;;;;;;16.17;5.93;;;10.80;99.90;;;;;;5076328;28;20199;-71
2024/02/05 01:38:18;;;;;;;15.02;5.53;;;10.80;99.90;;;;;;5081134;28;20288;-73
2024/02/05 01:40:45;;;;;;;13.48;6.30;;;10.80;99.90;;;;;;5076678;28;20219;-75
2024/02/05 01:43:12;;;;;;;10.95;6.40;;;10.80;99.90;;;;;;5089387;28;20219;-74
2024/02/05 01:45:39;;;;;;;10.70;4.78;;;10.70;99.90;;;;;;5080485;28;20242;-72
2024/02/05 01:48:09;;;;;;;16.92;5.65;;;10.80;99.90;;;;;;5074378;28;20203;-72
2024/02/05 01:50:38;;;;;;;15.00;6.13;;;10.80;99.90;;;;;;5081080;28;20202;-72
2024/02/05 01:53:06;;;;;;;16.83;7.32;;;10.80;99.90;;;;;;5080346;28;20226;-72
2024/02/05 01:55:33;;;;;;;21.08;6.63;;;10.70;99.90;;;;;;5080849;28;20226;-71
2024/02/05 01:58:00;;;;;;;16.90;6.68;;;10.70;99.90;;;;;;5078359;28;20277;-75
2024/02/05 02:00:28;;;;;;;14.75;7.13;;;10.70;99.90;;;;;;5083911;28;20280;-75
2024/02/05 02:02:56;;;;;;;21.63;7.43;;;10.70;99.90;;;;;;5077867;28;20215;-71
2024/02/05 02:05:24;;;;;;;19.27;7.95;;;10.70;99.90;;;;;;5083320;28;20227;-74
2024/02/05 02:07:52;;;;;;;12.25;6.90;;;10.70;99.90;;;;;;5074198;28;20204;-73
2024/02/05 02:10:19;;;;;;;14.27;5.85;;;10.70;99.90;;;;;;5076443;28;20264;-74
2024/02/05 02:12:46;;;;;;;18.00;6.85;;;10.70;99.90;;;;;;5075928;28;20223;-71
2024/02/05 02:15:14;;;;;;;11.30;5.63;;;10.70;99.90;;;;;;5076973;28;20215;-74
2024/02/05 02:17:45;;;;;;;16.10;6.90;;;10.70;99.90;;;;;;5082426;28;20251;-72
2024/02/05 02:20:12;;;;;;;15.48;7.47;;;10.60;99.90;;;;;;5083177;28;20199;-72
2024/02/05 02:22:52;;;;;;;21.98;6.65;;;10.60;99.90;;;;;;5077246;28;20677;-71
2024/02/05 02:25:21;;;;;;;15.23;6.20;;;10.70;99.90;;;;;;5078156;28;20264;-72
2024/02/05 02:27:48;;;;;;;15.63;7.45;;;10.70;99.90;;;;;;5078089;28;20562;-73
2024/02/05 02:30:17;;;;;;;17.63;7.90;;;10.70;99.90;;;;;;5077704;28;20255;-75
2024/02/05 02:32:53;;;;;;;21.48;7.25;;;10.60;99.90;;;;;;5076907;28;20639;-70
2024/02/05 02:35:25;;;;;;;19.13;6.72;;;10.70;99.90;;;;;;5089994;28;20231;-74
2024/02/05 02:37:59;;;;;;;16.00;7.32;;;10.60;99.90;;;;;;5073909;28;20234;-73
2024/02/05 02:40:29;;;;;;;15.32;7.20;;;10.60;99.90;;;;;;5075313;28;20238;-71
2024/02/05 02:43:00;;;;;;;28.83;8.70;;;10.70;99.90;;;;;;5083750;28;20219;-74
2024/02/05 02:45:28;;;;;;;15.00;6.70;;;10.70;99.90;;;;;;5074910;28;20419;-72
2024/02/05 02:47:55;;;;;;;17.27;7.68;;;10.60;99.90;;;;;;5074010;28;20249;-72
2024/02/05 02:50:22;;;;;;;15.38;7.15;;;10.70;99.90;;;;;;5080898;28;20268;-73
2024/02/05 02:52:49;;;;;;;24.30;8.45;;;10.70;99.90;;;;;;5079919;28;20280;-72
2024/02/05 02:55:16;;;;;;;18.33;7.00;;;10.60;99.90;;;;;;5076373;28;20245;-72
2024/02/05 02:57:45;;;;;;;15.05;6.45;;;10.50;99.90;;;;;;5077941;28;20199;-71
2024/02/05 03:00:14;;;;;;;21.40;6.63;;;10.60;99.90;;;;;;5079915;28;20260;-72
2024/02/05 03:02:41;;;;;;;15.18;6.82;;;10.60;99.90;;;;;;5086980;28;20215;-71
2024/02/05 03:05:09;;;;;;;19.60;8.02;;;10.50;99.90;;;;;;5074644;28;20235;-72
2024/02/05 03:07:36;;;;;;;19.92;8.65;;;10.50;99.90;;;;;;5080804;28;20227;-73
2024/02/05 03:10:05;;;;;;;18.23;8.57;;;10.50;99.90;;;;;;5074461;28;20239;-75
2024/02/05 03:12:32;;;;;;;18.40;7.63;;;10.50;99.90;;;;;;5078752;28;20586;-73
2024/02/05 03:15:00;;;;;;;17.45;7.95;;;10.50;99.90;;;;;;5074221;28;20231;-70
2024/02/05 03:17:27;;;;;;;15.90;8.35;;;10.50;99.90;;;;;;5072884;28;20315;-73
2024/02/05 03:19:54;;;;;;;28.17;10.00;;;10.50;99.90;;;;;;5073293;28;20280;-72
2024/02/05 03:22:21;;;;;;;26.70;10.90;;;10.50;99.90;;;;;;5089375;28;20288;-73
2024/02/05 03:24:50;;;;;;;21.08;10.02;;;10.50;99.90;;;;;;5079097;28;20250;-72
2024/02/05 03:27:17;;;;;;;22.42;8.60;;;10.50;99.90;;;;;;5082012;28;20579;-71
2024/02/05 03:29:43;;;;;;;27.15;8.93;;;10.50;99.90;;;;;;5073698;28;20256;-72
2024/02/05 03:32:12;;;;;;;21.20;9.48;;;10.50;99.90;;;;;;5074273;28;20223;-70
2024/02/05 03:34:39;;;;;;;16.05;8.05;;;10.50;99.90;;;;;;5080859;28;20254;-71
2024/02/05 03:37:06;;;;;;;14.05;8.60;;;10.40;99.90;;;;;;5072518;28;20607;-74
2024/02/05 03:39:33;;;;;;;36.92;9.20;;;10.50;99.90;;;;;;5079599;28;20195;-74
2024/02/05 03:42:00;;;;;;;28.48;10.27;;;10.40;99.90;;;;;;5076099;28;20617;-72
2024/02/05 03:44:27;;;;;;;18.20;9.50;;;10.40;99.90;;;;;;5073515;28;20200;-72
2024/02/05 03:46:54;;;;;;;26.45;9.32;;;10.40;99.90;;;;;;5075023;28;20265;-72
2024/02/05 03:49:22;;;;;;;27.58;8.85;;;10.40;99.90;;;;;;5083274;28;20239;-74
2024/02/05 03:51:49;;;;;;;20.95;9.00;;;10.40;99.90;;;;;;5072703;28;20237;-72
2024/02/05 03:54:16;;;;;;;21.50;9.18;;;10.40;99.90;;;;;;5077023;28;20258;-72
2024/02/05 03:56:44;;;;;;;25.30;9.07;;;10.40;99.90;;;;;;5083498;28;20260;-73
2024/02/05 03:59:11;;;;;;;25.10;8.48;;;10.40;99.90;;;;;;5074734;28;20207;-73
2024/02/05 04:01:38;;;;;;;25.55;10.38;;;10.50;99.90;;;;;;5078950;28;20241;-72
2024/02/05 04:04:05;;;;;;;37.80;11.32;;;10.40;99.90;;;;;;5077007;28;20261;-71
2024/02/05 04:06:34;;;;;;;29.80;10.07;;;10.40;99.90;;;;;;5074733;28;20395;-71
2024/02/05 04:09:01;;;;;;;26.75;10.05;;;10.40;99.90;;;;;;5072226;28;20210;-72
2024/02/05 04:11:28;;;;;;;33.38;9.43;;;10.40;99.90;;;;;;5074934;28;20200;-74
2024/02/05 04:13:55;;;;;;;22.58;9.15;;;10.40;99.90;;;;;;5084235;28;20571;-73
2024/02/05 04:16:23;;;;;;;19.02;9.20;;;10.40;99.90;;;;;;5074408;28;20245;-73
2024/02/05 04:18:50;;;;;;;26.08;8.55;;;10.40;99.90;;;;;;5072250;28;20374;-72
2024/02/05 04:21:17;;;;;;;46.38;11.75;;;10.40;99.90;;;;;;5076722;28;20199;-74
2024/02/05 04:23:45;;;;;;;28.17;9.68;;;10.40;99.90;;;;;;5077880;28;20213;-73
2024/02/05 04:26:16;;;;;;;32.97;9.85;;;10.40;99.90;;;;;;5074361;28;20247;-73
2024/02/05 04:28:43;;;;;;;27.52;8.82;;;10.40;99.90;;;;;;5083588;28;20225;-71
2024/02/05 04:31:10;;;;;;;30.17;9.82;;;10.40;99.90;;;;;;5083300;28;20256;-71
2024/02/05 04:33:37;;;;;;;35.22;9.43;;;10.40;99.90;;;;;;5072219;28;20219;-71
2024/02/05 04:36:09;;;;;;;29.92;9.65;;;10.40;99.90;;;;;;5072762;28;20199;-72
2024/02/05 04:38:36;;;;;;;27.98;12.70;;;10.40;99.90;;;;;;5071568;28;20199;-70
2024/02/05 04:41:05;;;;;;;18.65;8.60;;;10.40;99.90;;;;;;5072623;28;20269;-72
2024/02/05 04:43:32;;;;;;;32.20;10.82;;;10.40;99.90;;;;;;5084125;28;20216;-71
2024/02/05 04:45:59;;;;;;;32.95;9.02;;;10.40;99.90;;;;;;5074399;28;20253;-71
2024/02/05 04:48:26;;;;;;;31.70;9.32;;;10.50;99.90;;;;;;5072636;28;20564;-73
2024/02/05 04:50:53;;;;;;;36.80;9.88;;;10.50;99.90;;;;;;5072487;28;20230;-72
2024/02/05 04:53:20;;;;;;;25.83;8.27;;;10.50;99.90;;;;;;5080841;28;20748;-70
2024/02/05 04:55:47;;;;;;;26.20;8.38;;;10.60;99.90;;;;;;5072265;28;20221;-73
2024/02/05 04:58:15;;;;;;;40.78;8.85;;;10.60;99.90;;;;;;5071478;28;20199;-72
2024/02/05 05:00:42;;;;;;;19.83;7.93;;;10.70;99.90;;;;;;5072199;28;20268;-74
2024/02/05 05:03:09;;;;;;;34.30;7.20;;;10.70;99.90;;;;;;5073631;28;20245;-75
2024/02/05 05:05:36;;;;;;;16.15;6.40;;;10.70;99.90;;;;;;5080532;28;20199;-74
2024/02/05 05:08:03;;;;;;;24.88;7.80;;;10.80;99.90;;;;;;5071104;28;20715;-73
2024/02/05 05:10:30;;;;;;;28.33;8.13;;;10.80;99.90;;;;;;5083043;28;20203;-72
2024/02/05 05:12:59;;;;;;;26.48;6.95;;;10.80;99.90;;;;;;5073914;28;20754;-73
2024/02/05 05:15:27;;;;;;;31.80;8.90;;;10.80;99.90;;;;;;5083387;28;20267;-73
2024/02/05 05:17:54;;;;;;;22.48;8.95;;;10.80;99.90;;;;;;5075858;28;20200;-75
2024/02/05 05:20:21;;;;;;;24.80;8.63;;;10.90;99.90;;;;;;5072699;28;20589;-73
2024/02/05 05:22:48;;;;;;;30.90;8.23;;;10.90;99.90;;;;;;5080064;28;20320;-72
2024/02/05 05:25:15;;;;;;;26.23;6.93;;;10.90;99.90;;;;;;5071924;28;20245;-73
2024/02/05 05:27:42;;;;;;;17.85;6.60;;;10.90;99.90;;;;;;5078348;28;20313;-73
2024/02/05 05:30:10;;;;;;;23.67;9.02;;;11.00;99.90;;;;;;5086327;28;20219;-74
2024/02/05 05:32:38;;;;;;;24.67;7.63;;;11.00;99.90;;;;;;5086100;28;20262;-74
2024/02/05 05:35:06;;;;;;;22.98;7.43;;;11.00;99.90;;;;;;5078656;28;20268;-76
2024/02/05 05:37:33;;;;;;;28.05;8.10;;;11.00;99.90;;;;;;5077366;28;20654;-74
2024/02/05 05:40:00;;;;;;;14.25;7.70;;;11.00;99.90;;;;;;5071493;28;20625;-74
2024/02/05 05:42:27;;;;;;;30.95;8.73;;;11.10;99.90;;;;;;5075743;28;20272;-72
2024/02/05 05:44:55;;;;;;;20.33;7.80;;;11.10;99.90;;;;;;5075590;28;20203;-72
2024/02/05 05:47:22;;;;;;;23.55;8.15;;;11.10;99.90;;;;;;5074267;28;20204;-74
2024/02/05 05:49:50;;;;;;;20.55;7.70;;;11.00;99.90;;;;;;5085642;28;20615;-75
2024/02/05 05:52:17;;;;;;;23.15;8.23;;;11.00;99.90;;;;;;5078039;28;20222;-74
2024/02/05 05:54:45;;;;;;;19.65;7.57;;;11.10;99.90;;;;;;5083840;28;20634;-72
2024/02/05 05:57:12;;;;;;;21.02;6.65;;;11.00;99.90;;;;;;5076922;28;20272;-75
2024/02/05 05:59:39;;;;;;;24.42;7.53;;;11.10;99.90;;;;;;5078456;28;20217;-74
2024/02/05 06:02:06;;;;;;;27.25;7.70;;;11.10;99.90;;;;;;5084139;28;20229;-75
2024/02/05 06:04:33;;;;;;;30.58;9.35;;;11.10;99.90;;;;;;5076908;28;20196;-73
2024/02/05 06:07:04;;;;;;;18.90;6.10;;;11.00;99.90;;;;;;5088593;28;20660;-75
2024/02/05 06:09:31;;;;;;;23.20;8.07;;;11.00;99.90;;;;;;5072885;28;20203;-76
2024/02/05 06:11:58;;;;;;;30.98;9.45;;;11.00;99.90;;;;;;5079056;28;20615;-74
2024/02/05 06:14:25;;;;;;;29.42;8.65;;;11.00;99.90;;;;;;5077794;28;20627;-72
2024/02/05 06:16:52;;;;;;;16.52;7.47;;;11.00;99.90;;;;;;5079128;28;20239;-74
2024/02/05 06:19:19;;;;;;;19.77;7.97;;;11.00;99.90;;;;;;5083310;28;20257;-73
2024/02/05 06:21:46;;;;;;;30.67;7.18;;;11.00;99.90;;;;;;5077929;28;20199;-73
2024/02/05 06:24:15;;;;;;;26.65;9.55;;;11.00;99.90;;;;;;5078966;28;20271;-76
2024/02/05 06:26:42;;;;;;;24.13;9.60;;;11.10;99.90;;;;;;5075549;28;20204;-75
2024/02/05 06:29:09;;;;;;;18.42;7.13;;;11.00;99.90;;;;;;5075640;28;20203;-73
2024/02/05 06:31:36;;;;;;;25.13;7.60;;;11.00;99.90;;;;;;5083095;28;20259;-75
2024/02/05 06:34:04;;;;;;;29.30;10.48;;;11.10;99.90;;;;;;5085942;28;20289;-74
2024/02/05 06:36:31;;;;;;;30.95;10.27;;;11.00;99.90;;;;;;5092224;28;20199;-73
2024/02/05 06:39:00;;;;;;;27.80;8.43;;;11.00;99.90;;;;;;5089506;28;20248;-75
2024/02/05 06:41:30;;;;;;;29.10;9.10;;;11.00;99.90;;;;;;5079335;28;20277;-75
2024/02/05 06:43:57;;;;;;;29.45;10.50;;;11.00;99.90;;;;;;5076549;28;20296;-75
2024/02/05 06:46:26;;;;;;;25.65;8.73;;;11.10;99.90;;;;;;5080467;28;20234;-73
2024/02/05 06:48:53;;;;;;;34.13;9.95;;;11.00;99.90;;;;;;5082839;28;20206;-75
2024/02/05 06:51:19;;;;;;;25.98;9.75;;;11.00;99.90;;;;;;5074142;28;20210;-73
2024/02/05 06:53:46;;;;;;;27.23;7.97;;;11.00;99.90;;;;;;5077596;28;20299;-73
2024/02/05 06:56:14;;;;;;;29.02;9.77;;;11.00;99.90;;;;;;5074263;28;20199;-76
2024/02/05 06:58:42;;;;;;;27.67;8.18;;;11.00;99.90;;;;;;5083808;28;20217;-74
2024/02/05 07:01:11;;;;;;;21.15;6.75;;;11.00;99.90;;;;;;5078979;28;20666;-76
2024/02/05 07:03:38;;;;;;;12.10;6.47;;;11.00;99.90;;;;;;5079614;28;20227;-75
2024/02/05 07:06:05;;;;;;;21.35;7.65;;;11.10;99.90;;;;;;5077356;28;20225;-75
2024/02/05 07:08:32;;;;;;;33.60;8.77;;;11.00;99.90;;;;;;5075763;28;20202;-73
2024/02/05 07:10:59;;;;;;;22.55;7.10;;;11.00;99.90;;;;;;5085109;28;20203;-72
2024/02/05 07:13:26;;;;;;;25.85;7.97;;;11.00;99.90;;;;;;5084981;28;20319;-75
2024/02/05 07:15:54;;;;;;;16.15;7.30;;;11.00;99.90;;;;;;5074147;28;20219;-74
2024/02/05 07:18:21;;;;;;;19.00;7.97;;;11.10;99.90;;;;;;5083223;28;20204;-73
2024/02/05 07:20:48;;;;;;;22.35;9.30;;;11.00;99.90;;;;;;5073532;28;20199;-73
2024/02/05 07:23:15;;;;;;;20.83;8.20;;;11.00;99.90;;;;;;5074691;28;20599;-74
2024/02/05 07:25:42;;;;;;;20.50;8.93;;;11.00;99.90;;;;;;5076027;28;20200;-74
2024/02/05 07:28:09;;;;;;;28.65;7.95;;;11.10;99.90;;;;;;5074782;28;20550;-73
2024/02/05 07:30:37;;;;;;;19.67;7.10;;;11.00;99.90;;;;;;5084517;28;20230;-74
2024/02/05 07:33:05;;;;;;;24.65;9.50;;;11.00;99.90;;;;;;5083651;28;20230;-75
2024/02/05 07:35:32;;;;;;;41.33;10.02;;;11.00;99.90;;;;;;5076179;28;20769;-74
2024/02/05 07:37:59;;;;;;;17.95;6.50;;;11.00;99.90;;;;;;5077083;28;20207;-74
2024/02/05 07:40:27;;;;;;;26.40;8.23;;;11.00;99.90;;;;;;5073266;28;20227;-73
2024/02/05 07:42:54;;;;;;;19.50;7.05;;;11.10;99.90;;;;;;5075909;28;20284;-73
2024/02/05 07:45:21;;;;;;;23.42;7.93;;;11.10;99.90;;;;;;5083873;28;20264;-76
2024/02/05 07:47:48;;;;;;;24.90;7.05;;;11.00;99.90;;;;;;5081033;28;20199;-72
2024/02/05 07:50:16;;;;;;;21.00;7.30;;;11.10;99.90;;;;;;5076308;28;20239;-74
2024/02/05 07:52:43;;;;;;;21.48;6.97;;;11.00;99.90;;;;;;5075907;28;20226;-75
2024/02/05 07:55:10;;;;;;;20.70;5.88;;;11.00;99.90;;;;;;5076632;28;20219;-73
2024/02/05 07:57:37;;;;;;;33.60;9.88;;;11.10;99.90;;;;;;5072871;28;20207;-74
2024/02/05 08:00:05;;;;;;;26.75;7.88;;;11.00;99.90;;;;;;5073088;28;20252;-75
2024/02/05 08:02:33;;;;;;;20.27;9.20;;;11.10;99.90;;;;;;5075588;28;20222;-74
2024/02/05 08:05:00;;;;;;;18.45;7.88;;;11.10;99.90;;;;;;5076733;28;20308;-74
2024/02/05 08:07:28;;;;;;;30.48;7.30;;;11.20;99.90;;;;;;5072007;28;20289;-73
2024/02/05 08:09:55;;;;;;;19.40;7.07;;;11.10;99.90;;;;;;5072846;28;20235;-73
2024/02/05 08:12:22;;;;;;;19.23;8.68;;;11.10;99.90;;;;;;5073069;28;20368;-75
2024/02/05 08:14:49;;;;;;;23.00;8.73;;;11.10;99.90;;;;;;5074672;28;20227;-72
2024/02/05 08:17:17;;;;;;;23.15;7.55;;;11.00;99.90;;;;;;5071973;28;20211;-74
2024/02/05 08:19:44;;;;;;;21.30;8.77;;;11.10;99.90;;;;;;5079116;28;20672;-77
2024/02/05 08:22:11;;;;;;;21.48;7.63;;;11.10;99.90;;;;;;5073540;28;20276;-76
2024/02/05 08:24:39;;;;;;;24.25;9.35;;;11.00;99.90;;;;;;5078913;28;20200;-75
2024/02/05 08:27:07;;;;;;;25.45;8.70;;;11.10;99.90;;;;;;5077283;28;20549;-73
2024/02/05 08:29:34;;;;;;;23.48;7.57;;;11.00;99.90;;;;;;5084388;28;20294;-73
2024/02/05 08:32:01;;;;;;;33.53;8.27;;;11.00;99.90;;;;;;5079089;28;20262;-74
2024/02/05 08:34:29;;;;;;;25.23;7.97;;;11.00;99.90;;;;;;5073703;28;20245;-73
2024/02/05 08:36:56;;;;;;;23.95;6.25;;;11.00;99.90;;;;;;5081530;28;20207;-74
2024/02/05 08:39:24;;;;;;;24.35;8.15;;;11.00;99.90;;;;;;5074858;28;20215;-73
2024/02/05 08:41:52;;;;;;;28.55;9.43;;;11.00;99.90;;;;;;5072125;28;20207;-76
2024/02/05 08:44:22;;;;;;;27.02;8.45;;;11.00;99.90;;;;;;5078468;28;20206;-75
2024/02/05 08:46:49;;;;;;;25.35;8.60;;;11.00;99.90;;;;;;5076089;28;20265;-75
2024/02/05 08:49:16;;;;;;;23.60;8.20;;;11.00;99.90;;;;;;5081409;28;20268;-76
2024/02/05 08:51:42;;;;;;;21.23;8.98;;;11.00;99.90;;;;;;5079922;28;20716;-74
2024/02/05 08:54:10;;;;;;;28.17;7.75;;;11.00;99.90;;;;;;5072614;28;20207;-74
2024/02/05 08:56:37;;;;;;;21.25;7.85;;;11.10;99.90;;;;;;5072779;28;20274;-75
2024/02/05 08:59:05;;;;;;;18.15;6.30;;;11.00;99.90;;;;;;5074463;28;20207;-73
2024/02/05 09:01:32;;;;;;;29.25;8.65;;;11.00;99.90;;;;;;5084223;28;20220;-75
2024/02/05 09:03:59;;;;;;;21.55;8.60;;;10.90;99.90;;;;;;5076443;28;20227;-74
2024/02/05 09:06:27;;;;;;;24.40;8.00;;;10.90;99.90;;;;;;5075655;28;20199;-74
2024/02/05 09:08:54;;;;;;;18.67;8.77;;;10.90;99.90;;;;;;5071549;28;20246;-74
2024/02/05 09:11:21;;;;;;;24.42;7.07;;;10.90;99.90;;;;;;5077237;28;20293;-76
2024/02/05 09:13:48;;;;;;;24.10;7.55;;;10.90;99.90;;;;;;5079228;28;20231;-75
2024/02/05 09:16:17;;;;;;;16.48;6.57;;;10.90;99.90;;;;;;5074687;28;20220;-74
2024/02/05 09:18:43;;;;;;;24.95;7.20;;;10.90;99.90;;;;;;5080311;28;20203;-75
2024/02/05 09:21:10;;;;;;;25.77;8.23;;;10.90;99.90;;;;;;5087750;28;20616;-74
2024/02/05 09:23:37;;;;;;;15.85;6.60;;;10.90;99.90;;;;;;5091665;28;20222;-74
2024/02/05 09:26:05;;;;;;;23.60;8.20;;;10.90;99.90;;;;;;5089539;28;20248;-75
2024/02/05 09:28:32;;;;;;;19.50;7.05;;;10.80;99.90;;;;;;5082719;28;20262;-74
2024/02/05 09:30:59;;;;;;;24.67;7.40;;;10.80;99.90;;;;;;5075754;28;20272;-72
2024/02/05 09:33:27;;;;;;;33.25;10.40;;;10.90;99.90;;;;;;5076592;28;20216;-73
2024/02/05 09:35:54;;;;;;;21.48;7.00;;;11.00;99.90;;;;;;5084619;28;20215;-72
2024/02/05 09:38:23;;;;;;;23.23;7.63;;;10.80;99.90;;;;;;5078538;28;20203;-74
2024/02/05 09:40:53;;;;;;;26.33;6.43;;;10.80;99.90;;;;;;5081214;28;20283;-74
2024/02/05 09:43:21;;;;;;;30.50;7.32;;;10.80;99.90;;;;;;5087252;28;20267;-72
2024/02/05 09:45:53;;;;;;;28.45;8.02;;;10.80;99.90;;;;;;5077264;28;20227;-75
2024/02/05 09:48:22;;;;;;;28.70;7.85;;;10.80;99.90;;;;;;5090613;28;20207;-74
2024/02/05 09:50:51;;;;;;;20.92;7.82;;;10.70;99.90;;;;;;5076065;28;20231;-73
2024/02/05 09:53:18;;;;;;;20.50;6.63;;;10.80;99.90;;;;;;5076493;28;20276;-75
2024/02/05 09:55:47;;;;;;;28.50;7.72;;;10.90;99.90;;;;;;5080451;28;20223;-74
2024/02/05 09:58:15;;;;;;;31.40;7.32;;;10.90;99.90;;;;;;5080853;28;20200;-75
2024/02/05 10:00:43;;;;;;;14.65;6.35;;;10.80;99.90;;;;;;5075108;28;20666;-75
2024/02/05 10:03:10;;;;;;;22.88;7.32;;;10.90;99.90;;;;;;5079632;28;20581;-73
2024/02/05 10:05:39;;;;;;;20.88;7.25;;;10.90;99.90;;;;;;5075304;28;20203;-77
2024/02/05 10:08:08;;;;;;;26.98;8.75;;;10.90;99.90;;;;;;5075221;28;20199;-73
2024/02/05 10:10:36;;;;;;;26.95;8.57;;;10.80;99.90;;;;;;5080083;28;20217;-75
2024/02/05 10:13:05;;;;;;;17.48;7.63;;;10.70;99.90;;;;;;5078431;28;20709;-72
2024/02/05 10:15:34;;;;;;;24.73;6.70;;;10.80;99.90;;;;;;5078549;28;20567;-71
2024/02/05 10:18:01;;;;;;;28.33;7.03;;;10.80;99.90;;;;;;5080553;28;20202;-76
2024/02/05 10:20:33;;;;;;;21.55;6.93;;;10.80;99.90;;;;;;5077918;28;20238;-75
2024/02/05 10:23:00;;;;;;;19.60;7.78;;;10.80;99.90;;;;;;5079229;28;20225;-74
2024/02/05 10:25:28;;;;;;;23.42;8.23;;;10.90;99.90;;;;;;5076622;28;20674;-74
2024/02/05 10:28:01;;;;;;;16.10;6.53;;;10.80;99.90;;;;;;5083118;28;20214;-73
2024/02/05 10:30:29;;;;;;;22.17;6.88;;;10.80;99.90;;;;;;5080368;28;20585;-75
2024/02/05 10:32:59;;;;;;;28.30;8.93;;;10.80;99.90;;;;;;5074358;28;20223;-76
2024/02/05 10:35:26;;;;;;;19.58;6.35;;;10.80;99.90;;;;;;5084623;28;20715;-75
2024/02/05 10:37:54;;;;;;;21.52;7.75;;;10.90;99.90;;;;;;5086743;28;20252;-75
2024/02/05 10:40:21;;;;;;;28.75;7.20;;;10.80;99.90;;;;;;5077586;28;20285;-79
2024/02/05 10:42:50;;;;;;;37.42;8.05;;;10.80;99.90;;;;;;5079898;28;20272;-78
2024/02/05 10:45:17;;;;;;;16.52;6.70;;;10.80;99.90;;;;;;5078288;28;20204;-77
2024/02/05 10:47:44;;;;;;;25.88;7.45;;;10.80;99.90;;;;;;5088502;28;20219;-75
2024/02/05 10:50:13;;;;;;;23.02;7.88;;;10.80;99.90;;;;;;5079559;28;20256;-73
2024/02/05 10:52:40;;;;;;;24.88;7.93;;;10.80;99.90;;;;;;5074539;28;20273;-75
2024/02/05 10:55:08;;;;;;;30.08;8.90;;;10.70;99.90;;;;;;5081432;28;20277;-74
2024/02/05 10:57:38;;;;;;;14.80;7.63;;;10.70;99.90;;;;;;5079141;28;20206;-74
2024/02/05 11:00:09;;;;;;;26.25;7.25;;;10.70;99.90;;;;;;5078357;28;20211;-74
2024/02/05 11:02:40;;;;;;;29.30;6.72;;;10.70;99.90;;;;;;5075510;28;20222;-76
2024/02/05 11:05:11;;;;;;;14.20;6.38;;;10.70;99.90;;;;;;5075161;28;20611;-74
2024/02/05 11:07:47;;;;;;;24.35;5.47;;;10.70;99.90;;;;;;5082425;28;20203;-74
2024/02/05 11:10:17;;;;;;;17.95;7.72;;;10.80;99.90;;;;;;5086321;28;20195;-73
2024/02/05 11:12:48;;;;;;;18.48;6.70;;;10.70;99.90;;;;;;5075648;28;20215;-72
2024/02/05 11:15:22;;;;;;;19.40;7.40;;;10.80;99.90;;;;;;5086897;28;20242;-74
2024/02/05 11:17:51;;;;;;;18.80;6.97;;;10.60;99.90;;;;;;5075909;28;20662;-76
2024/02/05 11:20:19;;;;;;;20.13;8.00;;;10.70;99.90;;;;;;5073794;28;20344;-73
2024/02/05 11:22:50;;;;;;;24.67;9.32;;;10.70;99.90;;;;;;5076021;28;20219;-75
2024/02/05 11:25:17;;;;;;;18.77;7.35;;;10.70;99.90;;;;;;5075167;28;20207;-74
2024/02/05 11:27:44;;;;;;;16.92;6.93;;;10.70;99.90;;;;;;5080458;28;20569;-74
2024/02/05 11:30:15;;;;;;;25.63;6.97;;;10.70;99.90;;;;;;5073909;28;20258;-73
2024/02/05 11:32:43;;;;;;;27.52;9.35;;;10.60;99.90;;;;;;5072804;28;20247;-74
2024/02/05 11:35:13;;;;;;;22.08;7.40;;;10.70;99.90;;;;;;5074173;28;20204;-74
2024/02/05 11:37:42;;;;;;;24.38;7.35;;;10.60;99.90;;;;;;5073986;28;20203;-74
2024/02/05 11:40:19;;;;;;;21.55;8.20;;;10.70;99.90;;;;;;5073535;28;20238;-74
2024/02/05 11:42:46;;;;;;;17.42;7.22;;;10.60;99.90;;;;;;5074187;28;20226;-76
2024/02/05 11:45:13;;;;;;;18.08;7.40;;;10.70;99.90;;;;;;5077951;28;20204;-74
2024/02/05 11:47:40;;;;;;;27.85;8.25;;;10.60;99.90;;;;;;5074642;28;20205;-73
2024/02/05 11:50:10;;;;;;;28.23;8.82;;;10.60;99.90;;;;;;5073249;28;20203;-74
2024/02/05 11:52:39;;;;;;;21.30;6.43;;;10.70;99.90;;;;;;5084313;28;20284;-73
2024/02/05 11:55:07;;;;;;;23.90;8.68;;;10.70;99.90;;;;;;5075026;28;20200;-74
2024/02/05 11:57:35;;;;;;;20.25;7.78;;;10.70;99.90;;;;;;5079508;28;20219;-74
2024/02/05 12:00:02;;;;;;;18.10;6.78;;;10.70;99.90;;;;;;5073120;28;20290;-74
2024/02/05 12:02:29;;;;;;;23.98;8.25;;;10.70;99.90;;;;;;5074145;28;20234;-73
2024/02/05 12:04:58;;;;;;;14.13;6.05;;;10.70;99.90;;;;;;5079656;28;20595;-72
2024/02/05 12:07:28;;;;;;;23.85;7.00;;;10.70;99.90;;;;;;5073235;28;20241;-73
2024/02/05 12:09:57;;;;;;;18.02;7.65;;;10.80;99.90;;;;;;5076579;28;20246;-72
2024/02/05 12:12:25;;;;;;;26.60;6.70;;;10.80;99.90;;;;;;5079062;28;20643;-73
2024/02/05 12:14:52;;;;;;;16.90;7.00;;;10.80;99.90;;;;;;5080805;28;20306;-72
2024/02/05 12:17:20;;;;;;;13.60;7.00;;;10.70;99.90;;;;;;5075499;28;20292;-76
2024/02/05 12:19:47;;;;;;;17.77;6.75;;;10.70;99.90;;;;;;5075011;28;20199;-75
2024/02/05 12:22:14;;;;;;;16.83;7.97;;;10.80;99.90;;;;;;5072354;28;20717;-73
2024/02/05 12:24:43;;;;;;;17.23;6.80;;;10.80;99.90;;;;;;5077864;28;20455;-74
2024/02/05 12:27:10;;;;;;;18.05;8.90;;;10.80;99.90;;;;;;5082707;28;20713;-72
2024/02/05 12:29:38;;;;;;;15.82;7.93;;;10.80;99.90;;;;;;5085710;28;20203;-74
2024/02/05 12:32:06;;;;;;;14.55;6.47;;;10.80;99.90;;;;;;5077132;28;20273;-75
2024/02/05 12:34:33;;;;;;;20.25;8.73;;;10.80;99.90;;;;;;5078429;28;20203;-74
2024/02/05 12:37:00;;;;;;;24.63;6.90;;;10.70;99.90;;;;;;5080824;28;20219;-75